Time,TemperatureF,DewpointF,PressureIn,WindDirection,WindDirectionDegrees,WindSpeedMPH,WindSpeedGustMPH,Humidity,HourlyPrecipIn,Conditions,Clouds,dailyrainin,SoftwareType,DateUTC
2013-11-07 00:21:00,33.0,32.0,30.28,NW,305,0.0,1.0,97,0.00,,,0.12,,2013-11-07 08:21:00,
2013-11-07 00:42:00,33.0,32.0,30.27,WSW,252,0.0,3.0,98,0.00,,,0.12,,2013-11-07 08:42:00,
2013-11-07 00:53:00,34.0,33.0,30.26,West,279,1.0,2.0,97,0.00,,,0.12,,2013-11-07 08:53:00,
2013-11-07 01:11:00,34.0,33.0,30.24,NW,321,0.0,5.0,97,0.00,,,0.12,,2013-11-07 09:11:00,
2013-11-07 01:21:00,34.0,33.0,30.24,NW,309,0.0,3.0,97,0.00,,,0.12,,2013-11-07 09:21:00,
2013-11-07 01:42:00,34.0,33.0,30.23,NW,322,0.0,2.0,97,0.00,,,0.12,,2013-11-07 09:42:00,
2013-11-07 01:53:00,34.0,33.0,30.22,WNW,298,1.0,3.0,97,0.00,,,0.12,,2013-11-07 09:53:00,
2013-11-07 02:22:00,34.0,33.0,30.21,NW,312,1.0,2.0,96,0.00,,,0.12,,2013-11-07 10:22:00,
2013-11-07 02:42:00,34.0,33.0,30.20,WNW,292,0.0,2.0,96,0.00,,,0.12,,2013-11-07 10:42:00,
2013-11-07 02:52:00,34.0,33.0,30.19,NW,307,0.0,3.0,96,0.01,,,0.13,,2013-11-07 10:52:00,
2013-11-07 03:11:00,33.0,32.0,30.19,NW,310,0.0,3.0,97,0.02,,,0.14,,2013-11-07 11:11:00,
2013-11-07 03:22:00,33.0,32.0,30.18,NW,316,0.0,4.0,97,0.02,,,0.14,,2013-11-07 11:22:00,
2013-11-07 03:42:00,33.0,32.0,30.17,WNW,300,0.0,4.0,98,0.02,,,0.15,,2013-11-07 11:42:00,
2013-11-07 03:52:00,33.0,32.0,30.16,NW,319,0.0,2.0,98,0.02,,,0.15,,2013-11-07 11:52:00,
2013-11-07 04:22:00,33.0,32.0,30.14,West,274,1.0,4.0,98,0.02,,,0.16,,2013-11-07 12:22:00,
2013-11-07 04:52:00,33.0,32.0,30.12,WNW,299,1.0,3.0,98,0.04,,,0.19,,2013-11-07 12:52:00,
2013-11-07 05:12:00,33.0,33.0,30.11,NNW,336,0.0,1.0,99,0.05,,,0.20,,2013-11-07 13:12:00,
2013-11-07 05:21:00,33.0,33.0,30.10,NW,310,1.0,3.0,99,0.05,,,0.21,,2013-11-07 13:21:00,
2013-11-07 05:42:00,33.0,33.0,30.09,NNW,338,1.0,2.0,99,0.04,,,0.22,,2013-11-07 13:42:00,
2013-11-07 05:52:00,33.0,33.0,30.08,NW,319,0.0,3.0,99,0.04,,,0.23,,2013-11-07 13:52:00,
2013-11-07 06:11:00,33.0,33.0,30.06,NW,319,0.0,2.0,99,0.05,,,0.25,,2013-11-07 14:11:00,
2013-11-07 06:22:00,33.0,33.0,30.06,WNW,299,1.0,2.0,99,0.05,,,0.26,,2013-11-07 14:22:00,
2013-11-07 06:42:00,33.0,33.0,30.05,NW,316,0.0,1.0,99,0.06,,,0.28,,2013-11-07 14:42:00,
2013-11-07 06:52:00,33.0,33.0,30.03,NW,324,0.0,2.0,99,0.06,,,0.28,,2013-11-07 14:52:00,
2013-11-07 07:11:00,33.0,33.0,30.03,WNW,296,1.0,3.0,99,0.05,,,0.30,,2013-11-07 15:11:00,
2013-11-07 07:22:00,33.0,33.0,30.02,NNW,330,0.0,3.0,100,0.05,,,0.31,,2013-11-07 15:22:00,
2013-11-07 07:43:00,34.0,34.0,30.01,NW,323,0.0,2.0,100,0.05,,,0.33,,2013-11-07 15:43:00,
2013-11-07 07:53:00,34.0,34.0,30.01,NW,309,0.0,2.0,100,0.05,,,0.34,,2013-11-07 15:53:00,
2013-11-07 08:13:00,34.0,34.0,30.00,ENE,66,2.0,5.0,100,0.06,,,0.36,,2013-11-07 16:13:00,
2013-11-07 08:23:00,34.0,34.0,29.99,WNW,289,0.0,3.0,100,0.06,,,0.38,,2013-11-07 16:23:00,
2013-11-07 08:42:00,34.0,34.0,29.99,NW,307,1.0,2.0,100,0.07,,,0.40,,2013-11-07 16:42:00,
2013-11-07 08:52:00,34.0,34.0,29.97,NNW,340,0.0,3.0,100,0.08,,,0.42,,2013-11-07 16:52:00,
2013-11-07 09:12:00,34.0,34.0,29.97,NNW,337,1.0,3.0,100,0.07,,,0.44,,2013-11-07 17:12:00,
2013-11-07 09:22:00,34.0,34.0,29.96,NW,324,0.0,3.0,100,0.07,,,0.44,,2013-11-07 17:22:00,
2013-11-07 09:42:00,34.0,34.0,29.96,NW,317,0.0,2.0,100,0.04,,,0.44,,2013-11-07 17:42:00,
2013-11-07 09:52:00,34.0,34.0,29.95,NNW,331,0.0,5.0,100,0.05,,,0.46,,2013-11-07 17:52:00,
2013-11-07 10:02:00,34.0,34.0,29.95,NNW,331,0.0,5.0,100,0.05,,,0.46,,2013-11-07 18:02:00,
2013-11-07 10:11:00,34.0,34.0,29.95,NNW,331,0.0,5.0,100,0.05,,,0.46,,2013-11-07 18:11:00,
2013-11-07 10:22:00,35.0,35.0,29.94,North,8,0.0,3.0,100,0.06,,,0.49,,2013-11-07 18:22:00,
2013-11-07 10:42:00,35.0,35.0,29.93,NW,323,0.0,3.0,100,0.07,,,0.51,,2013-11-07 18:42:00,
2013-11-07 10:52:00,35.0,35.0,29.93,WNW,283,0.0,1.0,100,0.10,,,0.54,,2013-11-07 18:52:00,
2013-11-07 11:21:00,35.0,35.0,29.90,West,265,0.0,2.0,100,0.09,,,0.57,,2013-11-07 19:21:00,
2013-11-07 11:42:00,35.0,35.0,29.91,West,274,1.0,2.0,100,0.08,,,0.57,,2013-11-07 19:42:00,
2013-11-07 11:52:00,35.0,35.0,29.88,SW,231,2.0,3.0,100,0.09,,,0.62,,2013-11-07 19:52:00,
2013-11-07 12:21:00,36.0,36.0,29.85,North,11,0.0,3.0,100,0.07,,,0.64,,2013-11-07 20:21:00,
2013-11-07 12:42:00,36.0,36.0,29.83,NW,323,0.0,2.0,100,0.06,,,0.62,,2013-11-07 20:42:00,
2013-11-07 12:52:00,36.0,36.0,29.83,NW,306,0.0,1.0,100,0.02,,,0.62,,2013-11-07 20:52:00,
2013-11-07 13:12:00,37.0,37.0,29.81,NW,316,0.0,2.0,100,0.00,,,0.62,,2013-11-07 21:12:00,
2013-11-07 13:22:00,37.0,37.0,29.82,WSW,258,0.0,2.0,100,0.01,,,0.63,,2013-11-07 21:22:00,
2013-11-07 13:43:00,36.0,36.0,29.81,NW,307,0.0,9.0,100,0.04,,,0.64,,2013-11-07 21:43:00,
2013-11-07 13:53:00,37.0,37.0,29.79,North,8,0.0,2.0,100,0.09,,,0.69,,2013-11-07 21:53:00,
2013-11-07 14:13:00,37.0,37.0,29.79,West,275,1.0,3.0,100,0.11,,,0.71,,2013-11-07 22:13:00,
2013-11-07 14:23:00,37.0,37.0,29.77,North,8,1.0,2.0,100,0.14,,,0.75,,2013-11-07 22:23:00,
2013-11-07 14:43:00,37.0,37.0,29.77,NW,321,0.0,1.0,100,0.14,,,0.76,,2013-11-07 22:43:00,
2013-11-07 14:53:00,37.0,37.0,29.76,NW,316,0.0,2.0,100,0.12,,,0.79,,2013-11-07 22:53:00,
2013-11-07 15:12:00,37.0,37.0,29.75,West,262,1.0,2.0,100,0.09,,,0.79,,2013-11-07 23:12:00,
2013-11-07 15:22:00,37.0,37.0,29.75,West,276,0.0,2.0,100,0.07,,,0.80,,2013-11-07 23:22:00,
2013-11-07 15:43:00,37.0,37.0,29.74,NW,310,0.0,1.0,100,0.05,,,0.80,,2013-11-07 23:43:00,
2013-11-07 15:53:00,37.0,37.0,29.73,NW,310,0.0,0.0,100,0.03,,,0.81,,2013-11-07 23:53:00,
2013-11-07 16:12:00,37.0,37.0,29.74,NW,309,0.0,1.0,100,0.03,,,0.81,,2013-11-08 00:12:00,
2013-11-07 16:21:00,37.0,37.0,29.73,NW,309,0.0,0.0,100,0.02,,,0.81,,2013-11-08 00:21:00,
2013-11-07 16:42:00,39.0,39.0,29.75,SW,228,7.0,15.0,100,0.01,,,0.80,,2013-11-08 00:42:00,
2013-11-07 16:52:00,40.0,40.0,29.76,SSW,212,14.0,18.0,100,0.00,,,0.80,,2013-11-08 00:52:00,
2013-11-07 17:22:00,39.0,39.0,29.77,SSW,211,13.0,18.0,100,0.01,,,0.81,,2013-11-08 01:22:00,
2013-11-07 17:52:00,38.0,38.0,29.78,WSW,239,14.0,21.0,99,0.01,,,0.81,,2013-11-08 01:52:00,
2013-11-07 18:21:00,37.0,37.0,29.79,SSW,203,15.0,20.0,99,0.00,,,0.81,,2013-11-08 02:21:00,
2013-11-07 18:42:00,37.0,37.0,29.80,WSW,252,13.0,19.0,100,0.00,,,0.80,,2013-11-08 02:42:00,
2013-11-07 18:52:00,37.0,37.0,29.82,SW,221,11.0,14.0,100,0.00,,,0.80,,2013-11-08 02:52:00,
2013-11-07 19:11:00,38.0,38.0,29.82,SSW,208,10.0,15.0,100,0.00,,,0.80,,2013-11-08 03:11:00,
2013-11-07 19:21:00,38.0,38.0,29.82,SSW,210,11.0,17.0,100,0.00,,,0.80,,2013-11-08 03:21:00,
2013-11-07 19:44:00,38.0,38.0,29.83,SSW,211,8.0,16.0,100,0.00,,,0.80,,2013-11-08 03:44:00,
2013-11-07 19:54:00,38.0,38.0,29.83,SW,218,6.0,10.0,100,0.00,,,0.80,,2013-11-08 03:54:00,
2013-11-07 20:23:00,39.0,39.0,29.85,WSW,255,3.0,7.0,100,0.00,,,0.80,,2013-11-08 04:23:00,
2013-11-07 20:43:00,39.0,39.0,29.84,SW,220,5.0,8.0,100,0.01,,,0.81,,2013-11-08 04:43:00,
2013-11-07 20:54:00,39.0,39.0,29.83,SW,222,5.0,7.0,100,0.03,,,0.83,,2013-11-08 04:54:00,
2013-11-07 21:23:00,40.0,40.0,29.84,SW,236,6.0,10.0,100,0.03,,,0.83,,2013-11-08 05:23:00,
2013-11-07 21:43:00,40.0,40.0,29.84,SW,229,4.0,9.0,100,0.02,,,0.83,,2013-11-08 05:43:00,
2013-11-07 21:54:00,40.0,40.0,29.84,SSW,207,7.0,10.0,99,0.00,,,0.83,,2013-11-08 05:54:00,
2013-11-07 22:23:00,40.0,39.0,29.84,SW,218,10.0,12.0,98,0.00,,,0.83,,2013-11-08 06:23:00,
2013-11-07 22:42:00,40.0,39.0,29.84,SSW,203,11.0,18.0,98,0.00,,,0.82,,2013-11-08 06:42:00,
2013-11-07 22:52:00,40.0,39.0,29.84,SW,224,10.0,16.0,97,0.00,,,0.82,,2013-11-08 06:52:00,
2013-11-07 23:11:00,39.0,38.0,29.84,SW,225,10.0,16.0,97,0.00,,,0.82,,2013-11-08 07:11:00,
2013-11-07 23:21:00,39.0,38.0,29.85,SSW,213,4.0,12.0,97,0.00,,,0.82,,2013-11-08 07:21:00,
2013-11-07 23:42:00,39.0,38.0,29.85,SSW,207,10.0,16.0,97,0.00,,,0.82,,2013-11-08 07:42:00,
2013-11-07 23:52:00,39.0,38.0,29.85,SSW,196,4.0,11.0,96,0.00,,,0.82,,2013-11-08 07:52:00,